Share

University, MS

RAWS WINBORN MS US (MWINM6) Elev 500 ft | 34.62 °N, 89.31 °W | Change Station

Current weather conditions updated 45 minutes ago

Overcast
Overcast
66 °F
Feels Like 66 °F
N
2
Wind Variable Wind from SE
Gusts 6.0 mph
Sunrise 6:23 AM
Sunset 7:32 PM
Moon Waning Gibbous

Tomorrow is forecast to be Warmer than today.

Pressure 30.15 in
Visibility 10.0 miles
Clouds Scattered Clouds 6000 ft
Overcast 8000 ft
Dew Point 51 °F
Humidity 58%
Rainfall 0.00 in
Snow Depth Not available.
UV 0 out of 16
Pollen 9.10 out of 12
Air Quality Not available.
Flu Activity No Activity
METAR KUTA 190035Z AUTO 07004KT 10SM SCT060 OVC080 19/13 A3015 RMK AO2

More Conditions Fewer Conditions

Pressure 30.15 in
Visibility 10.0 miles
Clouds Scattered Clouds 6000 ft
Overcast 8000 ft
Dew Point 51 °F
Humidity 58%
Rainfall 0.00 in
Snow Depth Not available.
UV 0 out of 16
Pollen 9.10 out of 12
Air Quality Not available.
Flu Activity No Activity
METAR KUTA 190035Z AUTO 07004KT 10SM SCT060 OVC080 19/13 A3015 RMK AO2

More Conditions Fewer Conditions

10-Day Weather Forecast

Almanac

Astronomy

Apr. 18, 2014 Rise Set
Actual Time 6:23 AM CDT 7:32 PM CDT
Civil Twilight 5:57 AM CDT 7:58 PM CDT
Nautical Twilight 5:26 AM CDT 8:29 PM CDT
Astronomical Twilight 4:54 AM CDT 9:01 PM CDT
Moon 11:11 PM CDT (4/18) 8:50 AM CDT (4/18)
Length of Visible Light 14h 01m
Length of Day
13h 09m
Tomorrow will be 2m 0s longer.
Waning Gibbous, 84% of the Moon is Illuminated
Today
Waning Gibbous
Apr 22
Last Quarter
Apr 29
New
May 6
First Quarter
May 14
Full

Today's Extremes

State Highs State Lows

Community

  • Cloudy spring view
    Cloudy spring view
  • Old barn
    Old barn
  • What's for Lunch?
    What's for Lunch?
  • SUNRISE THROUGH THE TREES.
    SUNRISE THROUGH THE TREES.
  • Dog Wood Blossoms
    Dog Wood Blossoms

WunderPhotos

Upload Photos

1,702,549 photos uploaded!

WunderBlogs® & News

Nearby

Snow Depth

Station Depth Elevation
No new snow has been reported.

Coastal Water Temperatures

Place Temperature
No Stations Reporting

Earthquake Activity

City Distance Mag. Time & Date
No recent earthquake activity has been reported nearby.
Minimum magnitude displayed is 2.5.

Nearby Weather Stations

Station Location Temp. Dew Point Humidity Wind Precip. Elev Updated Type
RAWS WINBORN MS, Potts Camp, MS 66 °F 51 °F 58% SE  at  2 mph 0.00 in / hr 500 ft 7:09 PM CDT MADIS

Show More Stations Show Fewer Stations

What do you think?

We're not finished. Please let us know what you like, what you don't like, and what you are still missing.